createdAt,value
2019-04-22T00:01:56.998Z,101352.81
2019-04-22T00:04:45.029Z,101351.94
2019-04-22T00:07:30.638Z,101344.91
2019-04-22T00:12:47.343Z,101343.64
2019-04-22T00:15:15.217Z,101345.41
2019-04-22T00:18:05.480Z,101344.95
2019-04-22T00:20:33.621Z,101348.53
2019-04-22T00:23:03.773Z,101345.90
2019-04-22T00:25:49.344Z,101347.67
2019-04-22T00:28:39.339Z,101342.86
2019-04-22T00:30:56.162Z,101348.53
2019-04-22T00:33:29.054Z,101353.04
2019-04-22T00:36:04.331Z,101349.55
2019-04-22T00:38:38.669Z,101351.00
2019-04-22T00:41:14.947Z,101355.33
2019-04-22T00:43:51.101Z,101359.79
2019-04-22T00:46:25.117Z,101354.08
2019-04-22T00:49:48.977Z,101354.05
2019-04-22T00:51:44.907Z,101369.95
2019-04-22T00:54:08.705Z,101366.93
2019-04-22T00:56:48.226Z,101357.75
2019-04-22T00:59:23.365Z,101361.73
2019-04-22T01:02:01.930Z,101360.80
2019-04-22T01:07:06.073Z,101362.17
2019-04-22T01:09:46.532Z,101356.01
2019-04-22T01:12:28.437Z,101358.22
2019-04-22T01:15:00.394Z,101361.77
2019-04-22T01:17:34.384Z,101359.58
2019-04-22T01:20:23.899Z,101361.79
2019-04-22T01:22:45.456Z,101367.09
2019-04-22T01:25:19.136Z,101367.58
2019-04-22T01:27:52.823Z,101372.41
2019-04-22T01:30:24.412Z,101362.33
2019-04-22T01:32:53.916Z,101359.77
2019-04-22T01:35:41.280Z,101367.20
2019-04-22T01:38:21.823Z,101365.02
2019-04-22T01:41:07.214Z,101372.48
2019-04-22T01:43:46.208Z,101378.63
2019-04-22T01:46:16.387Z,101372.92
2019-04-22T01:48:47.726Z,101381.69
2019-04-22T01:51:35.462Z,101374.23
2019-04-22T01:54:05.175Z,101377.73
2019-04-22T01:56:34.920Z,101373.38
2019-04-22T01:58:59.356Z,101372.95
2019-04-22T02:01:50.992Z,101365.05
2019-04-22T02:04:26.898Z,101371.62
2019-04-22T02:06:57.542Z,101374.69
2019-04-22T02:09:38.621Z,101374.73
2019-04-22T02:12:13.132Z,101383.48
2019-04-22T02:14:53.910Z,101379.13
2019-04-22T02:17:26.718Z,101380.43
2019-04-22T02:20:04.057Z,101375.20
2019-04-22T02:23:27.112Z,101369.95
2019-04-22T02:25:34.621Z,101372.98
2019-04-22T02:28:16.993Z,101374.73
2019-04-22T02:31:05.037Z,101375.17
2019-04-22T02:38:51.867Z,101370.70
2019-04-22T02:41:22.740Z,101373.38
2019-04-22T02:44:02.086Z,101373.78
2019-04-22T02:46:49.406Z,101368.56
2019-04-22T02:51:32.759Z,101370.23
2019-04-22T02:56:54.287Z,101365.86
2019-04-22T02:59:34.974Z,101374.98
2019-04-22T03:02:11.988Z,101373.67
2019-04-22T03:04:48.527Z,101371.06
2019-04-22T03:07:29.328Z,101371.06
2019-04-22T03:09:57.871Z,101368.43
2019-04-22T03:12:35.259Z,101374.95
2019-04-22T03:15:07.852Z,101371.40
2019-04-22T03:17:47.347Z,101364.83
2019-04-22T03:20:41.947Z,101368.31
2019-04-22T03:23:11.605Z,101369.14
2019-04-22T03:28:10.322Z,101379.09
2019-04-22T03:31:34.430Z,101374.75
2019-04-22T03:34:39.391Z,101376.87
2019-04-22T03:39:29.812Z,101379.42
2019-04-22T03:42:02.522Z,101383.23
2019-04-22T03:47:11.574Z,101388.42
2019-04-22T03:52:10.809Z,101384.41
2019-04-22T03:59:59.383Z,101380.89
2019-04-22T04:05:10.814Z,101369.14
2019-04-22T04:08:12.111Z,101367.91
2019-04-22T04:13:05.520Z,101365.83
2019-04-22T04:15:29.929Z,101363.25
2019-04-22T04:18:13.873Z,101368.05
2019-04-22T04:23:31.248Z,101368.87
2019-04-22T04:25:52.686Z,101368.06
2019-04-22T04:31:19.506Z,101359.83
2019-04-22T04:39:00.657Z,101369.47
2019-04-22T04:41:42.677Z,101364.23
2019-04-22T04:44:23.481Z,101373.36
2019-04-22T04:46:51.966Z,101375.53
2019-04-22T04:49:25.946Z,101378.61
2019-04-22T04:52:16.615Z,101388.22
2019-04-22T04:57:16.938Z,101384.47
2019-04-22T05:00:13.238Z,101381.45
2019-04-22T05:05:08.317Z,101388.55
2019-04-22T05:07:44.306Z,101394.27
2019-04-22T05:10:34.882Z,101379.48
2019-04-22T05:13:14.478Z,101383.00
2019-04-22T05:15:43.175Z,101384.77
2019-04-22T05:18:12.547Z,101374.31
2019-04-22T05:20:59.733Z,101378.24
2019-04-22T05:23:24.916Z,101380.88
2019-04-22T05:26:04.216Z,101374.30
2019-04-22T05:28:35.315Z,101373.38
2019-04-22T05:31:16.181Z,101382.06
2019-04-22T05:33:48.231Z,101385.54
2019-04-22T05:36:28.339Z,101383.28
2019-04-22T05:39:06.064Z,101392.38
2019-04-22T05:41:45.988Z,101394.52
2019-04-22T05:44:26.311Z,101391.39
2019-04-22T05:46:56.245Z,101391.75
2019-04-22T05:49:45.876Z,101397.33
2019-04-22T05:52:10.791Z,101390.75
2019-04-22T05:54:42.778Z,101385.42
2019-04-22T05:57:17.907Z,101398.72
2019-04-22T06:00:01.601Z,101399.41
2019-04-22T06:02:48.751Z,101403.22
2019-04-22T06:05:11.902Z,101406.06
2019-04-22T06:07:45.699Z,101405.11
2019-04-22T06:10:29.342Z,101406.78
2019-04-22T06:13:01.059Z,101405.36
2019-04-22T06:15:33.906Z,101404.04
2019-04-22T06:21:03.751Z,101405.27
2019-04-22T06:23:35.948Z,101405.84
2019-04-22T06:28:50.087Z,101406.29
2019-04-22T06:31:37.228Z,101406.83
2019-04-22T06:34:10.311Z,101413.98
2019-04-22T06:36:47.701Z,101411.34
2019-04-22T06:39:21.139Z,101410.13
2019-04-22T06:41:58.927Z,101419.95
2019-04-22T06:44:32.309Z,101418.86
2019-04-22T06:47:10.560Z,101420.17
2019-04-22T06:49:46.640Z,101418.97
2019-04-22T06:55:11.492Z,101414.88
2019-04-22T06:57:37.008Z,101415.14
2019-04-22T07:00:17.423Z,101417.70
2019-04-22T07:03:18.972Z,101422.72
2019-04-22T07:08:39.387Z,101408.18
2019-04-22T07:13:51.756Z,101415.09
2019-04-22T07:16:30.206Z,101405.23
2019-04-22T07:19:05.649Z,101409.92
2019-04-22T07:21:53.111Z,101411.23
2019-04-22T07:24:58.286Z,101414.15
2019-04-22T07:27:46.029Z,101423.91
2019-04-22T07:30:55.546Z,101424.34
2019-04-22T07:33:34.883Z,101426.25
2019-04-22T07:36:33.498Z,101426.97
2019-04-22T07:38:50.742Z,101430.30
2019-04-22T07:41:27.076Z,101439.48
2019-04-22T07:46:56.592Z,101434.09
2019-04-22T07:49:33.974Z,101430.37
2019-04-22T07:52:03.675Z,101439.38
2019-04-22T07:54:41.422Z,101430.67
2019-04-22T07:57:19.925Z,101427.89
2019-04-22T07:59:57.172Z,101432.89
2019-04-22T08:02:37.476Z,101425.72
2019-04-22T08:05:20.681Z,101429.04
2019-04-22T08:07:43.489Z,101426.01
2019-04-22T08:13:05.443Z,101442.34
2019-04-22T08:15:48.601Z,101443.23
2019-04-22T08:18:21.944Z,101433.98
2019-04-22T08:20:56.801Z,101442.20
2019-04-22T08:23:36.792Z,101439.76
2019-04-22T08:26:05.479Z,101443.05
2019-04-22T08:28:53.303Z,101444.91
2019-04-22T08:34:01.924Z,101439.83
2019-04-22T08:36:50.781Z,101446.70
2019-04-22T08:39:18.870Z,101451.44
2019-04-22T08:41:43.774Z,101460.06
2019-04-22T08:47:11.206Z,101453.55
2019-04-22T08:49:50.493Z,101459.22
2019-04-22T08:54:57.522Z,101456.18
2019-04-22T08:57:40.725Z,101456.64
2019-04-22T09:00:03.975Z,101479.21
2019-04-22T09:02:41.613Z,101464.31
2019-04-22T09:05:22.815Z,101470.45
2019-04-22T09:07:49.800Z,101466.49
2019-04-22T09:10:36.182Z,101480.91
2019-04-22T09:15:34.355Z,101474.77
2019-04-22T09:18:17.236Z,101477.41
2019-04-22T09:21:04.733Z,101476.17
2019-04-22T09:23:32.331Z,101480.49
2019-04-22T09:26:02.936Z,101476.91
2019-04-22T09:28:48.778Z,101482.98
2019-04-22T09:31:11.458Z,101474.13
2019-04-22T09:33:43.053Z,101467.98
2019-04-22T09:36:29.034Z,101478.72
2019-04-22T09:39:12.138Z,101477.31
2019-04-22T09:44:12.885Z,101478.46
2019-04-22T09:49:51.932Z,101477.37
2019-04-22T09:52:22.486Z,101464.71
2019-04-22T09:55:06.084Z,101475.75
2019-04-22T09:57:43.166Z,101463.98
2019-04-22T10:00:15.512Z,101472.16
2019-04-22T10:02:55.432Z,101465.96
2019-04-22T10:05:28.895Z,101467.66
2019-04-22T10:09:02.248Z,101474.47
2019-04-22T10:12:32.512Z,101453.87
2019-04-22T10:15:23.361Z,101458.17
2019-04-22T10:17:57.936Z,101454.86
2019-04-22T10:20:38.762Z,101458.02
2019-04-22T10:23:17.656Z,101447.72
2019-04-22T10:25:54.447Z,101445.62
2019-04-22T10:28:32.774Z,101453.20
2019-04-22T10:31:21.877Z,101449.48
2019-04-22T10:33:30.883Z,101459.83
2019-04-22T10:35:51.816Z,101452.64
2019-04-22T10:38:28.385Z,101461.70
2019-04-22T10:41:02.795Z,101459.14
2019-04-22T10:43:45.270Z,101462.00
2019-04-22T10:46:19.871Z,101439.91
2019-04-22T10:48:54.655Z,101445.55
2019-04-22T10:51:40.434Z,101449.75
2019-04-22T10:54:13.876Z,101444.84
2019-04-22T10:56:48.784Z,101442.89
2019-04-22T10:59:24.689Z,101446.85
2019-04-22T11:02:01.368Z,101438.49
2019-04-22T11:04:38.611Z,101444.95
2019-04-22T11:07:15.380Z,101435.31
2019-04-22T11:09:59.242Z,101442.31
2019-04-22T11:12:29.977Z,101436.98
2019-04-22T11:15:28.572Z,101443.40
2019-04-22T11:18:31.631Z,101435.41
2019-04-22T11:22:03.748Z,101429.22
2019-04-22T11:24:30.701Z,101432.80
2019-04-22T11:27:05.318Z,101431.80
2019-04-22T11:30:07.999Z,101437.03
2019-04-22T11:33:20.632Z,101440.13
2019-04-22T11:36:30.622Z,101446.75
2019-04-22T11:39:42.785Z,101442.78
2019-04-22T11:42:41.525Z,101438.61
2019-04-22T11:45:47.249Z,101436.25
2019-04-22T11:48:26.924Z,101435.59
2019-04-22T11:51:00.298Z,101436.11
2019-04-22T11:53:34.616Z,101423.83
2019-04-22T11:56:32.527Z,101429.38
2019-04-22T11:59:36.313Z,101424.17
2019-04-22T12:02:42.929Z,101416.02
2019-04-22T12:05:21.543Z,101416.50
2019-04-22T12:07:55.261Z,101425.42
2019-04-22T12:10:36.631Z,101417.52
2019-04-22T12:13:04.422Z,101418.02
2019-04-22T12:15:37.676Z,101412.42
2019-04-22T12:18:13.072Z,101413.11
2019-04-22T12:20:47.444Z,101402.34
2019-04-22T12:23:21.169Z,101404.27
2019-04-22T12:26:04.148Z,101400.91
2019-04-22T12:28:33.077Z,101398.67
2019-04-22T12:31:37.835Z,101390.96
2019-04-22T12:34:44.351Z,101402.35
2019-04-22T12:37:52.895Z,101403.56
2019-04-22T12:40:30.107Z,101397.02
2019-04-22T12:42:55.483Z,101390.09
2019-04-22T12:45:34.201Z,101388.54
2019-04-22T12:48:10.255Z,101386.09
2019-04-22T12:50:52.719Z,101382.54
2019-04-22T12:53:28.082Z,101365.14
2019-04-22T12:56:02.913Z,101374.88
2019-04-22T12:58:37.832Z,101374.62
2019-04-22T13:01:12.824Z,101368.78
2019-04-22T13:03:46.571Z,101362.91
2019-04-22T13:06:19.922Z,101370.36
2019-04-22T13:08:54.482Z,101362.80
2019-04-22T13:11:32.229Z,101358.08
2019-04-22T13:14:04.960Z,101366.64
2019-04-22T13:16:40.733Z,101355.00
2019-04-22T13:19:19.353Z,101351.93
2019-04-22T13:21:54.427Z,101360.30
2019-04-22T13:24:28.119Z,101342.12
2019-04-22T13:27:01.389Z,101346.63
2019-04-22T13:29:35.079Z,101340.66
2019-04-22T13:32:08.985Z,101336.38
2019-04-22T13:34:49.194Z,101347.42
2019-04-22T13:37:19.212Z,101335.21
2019-04-22T13:39:52.920Z,101340.00
2019-04-22T13:42:27.540Z,101337.30
2019-04-22T13:45:01.969Z,101339.80
2019-04-22T13:47:55.754Z,101329.67
2019-04-22T13:50:49.466Z,101322.00
2019-04-22T13:53:28.877Z,101318.83
2019-04-22T13:58:12.381Z,101321.70
2019-04-22T14:00:34.439Z,101325.55
2019-04-22T14:03:29.013Z,101321.53
2019-04-22T14:06:02.716Z,101326.05
2019-04-22T14:08:37.560Z,101326.34
2019-04-22T14:11:23.369Z,101311.30
2019-04-22T14:13:46.327Z,101317.36
2019-04-22T14:16:22.706Z,101307.36
2019-04-22T14:18:56.106Z,101308.17
2019-04-22T14:21:30.606Z,101306.25
2019-04-22T14:24:04.931Z,101300.72
2019-04-22T14:26:52.403Z,101294.80
2019-04-22T14:29:17.495Z,101295.69
2019-04-22T14:32:02.871Z,101295.14
2019-04-22T14:34:26.924Z,101308.34
2019-04-22T14:37:11.882Z,101289.82
2019-04-22T14:39:51.690Z,101294.33
2019-04-22T14:42:44.028Z,101297.37
2019-04-22T14:48:02.701Z,101291.80
2019-04-22T14:50:34.081Z,101289.47
2019-04-22T14:53:08.205Z,101279.95
2019-04-22T14:55:27.480Z,101283.08
2019-04-22T14:57:59.144Z,101292.56
2019-04-22T15:00:33.945Z,101274.11
2019-04-22T15:03:08.198Z,101269.36
2019-04-22T15:05:42.018Z,101262.36
2019-04-22T15:08:15.515Z,101280.94
2019-04-22T15:10:49.725Z,101268.20
2019-04-22T15:13:23.414Z,101268.89
2019-04-22T15:16:21.077Z,101265.71
2019-04-22T15:19:07.744Z,101254.69
2019-04-22T15:21:42.931Z,101260.39
2019-04-22T15:24:27.566Z,101261.89
2019-04-22T15:27:04.561Z,101247.44
2019-04-22T15:29:39.081Z,101247.05
2019-04-22T15:32:13.537Z,101241.21
2019-04-22T15:34:47.113Z,101231.55
2019-04-22T15:37:22.209Z,101243.64
2019-04-22T15:39:56.799Z,101240.28
2019-04-22T15:42:35.584Z,101254.47
2019-04-22T15:45:08.441Z,101249.66
2019-04-22T15:47:41.809Z,101243.36
2019-04-22T15:50:16.217Z,101233.58
2019-04-22T15:52:53.775Z,101239.34
2019-04-22T15:55:26.800Z,101238.70
2019-04-22T15:58:01.610Z,101242.68
2019-04-22T16:00:44.445Z,101243.80
2019-04-22T16:03:12.493Z,101233.58
2019-04-22T16:05:46.122Z,101231.31
2019-04-22T16:08:21.151Z,101236.50
2019-04-22T16:10:55.867Z,101226.98
2019-04-22T16:13:32.402Z,101228.73
2019-04-22T16:16:04.795Z,101228.78
2019-04-22T16:18:38.211Z,101222.30
2019-04-22T16:21:13.090Z,101223.41
2019-04-22T16:23:56.722Z,101213.30
2019-04-22T16:27:06.950Z,101209.23
2019-04-22T16:29:41.210Z,101224.14
2019-04-22T16:32:15.641Z,101227.75
2019-04-22T16:34:49.922Z,101226.59
2019-04-22T16:37:25.070Z,101210.81
2019-04-22T16:39:58.889Z,101227.03
2019-04-22T16:42:41.307Z,101216.64
2019-04-22T16:45:09.453Z,101224.88
2019-04-22T16:47:43.978Z,101229.34
2019-04-22T16:50:18.576Z,101220.67
2019-04-22T16:52:52.399Z,101215.91
2019-04-22T16:55:26.559Z,101220.33
2019-04-22T16:58:01.041Z,101219.16
2019-04-22T17:00:34.563Z,101224.17
2019-04-22T17:03:31.196Z,101226.02
2019-04-22T17:06:14.424Z,101218.60
2019-04-22T17:08:48.677Z,101229.30
2019-04-22T17:11:22.255Z,101231.50
2019-04-22T17:13:57.294Z,101223.52
2019-04-22T17:16:56.755Z,101229.77
2019-04-22T17:19:59.627Z,101232.59
2019-04-22T17:23:13.821Z,101230.45
2019-04-22T17:25:52.495Z,101231.55
2019-04-22T17:28:25.967Z,101232.27
2019-04-22T17:31:01.909Z,101233.29
2019-04-22T17:33:37.150Z,101232.23
2019-04-22T17:36:12.081Z,101233.72
2019-04-22T17:38:56.480Z,101238.76
2019-04-22T17:41:32.515Z,101241.57
2019-04-22T17:44:25.060Z,101248.83
2019-04-22T17:46:51.018Z,101250.30
2019-04-22T17:49:50.465Z,101248.81
2019-04-22T17:54:51.622Z,101259.83
2019-04-22T17:57:27.973Z,101255.06
2019-04-22T18:00:06.748Z,101257.04
2019-04-22T18:02:32.638Z,101258.94
2019-04-22T18:05:02.005Z,101267.91
2019-04-22T18:07:49.309Z,101265.86
2019-04-22T18:10:32.445Z,101269.55
2019-04-22T18:13:08.838Z,101261.33
2019-04-22T18:15:40.952Z,101275.48
2019-04-22T18:18:18.615Z,101272.22
2019-04-22T18:20:48.907Z,101276.30
2019-04-22T18:23:12.701Z,101279.12
2019-04-22T18:26:01.656Z,101280.95
2019-04-22T18:28:42.172Z,101281.14
2019-04-22T18:31:07.700Z,101286.61
2019-04-22T18:33:43.303Z,101285.45
2019-04-22T18:36:19.854Z,101287.36
2019-04-22T18:41:30.881Z,101282.66
2019-04-22T18:44:11.388Z,101280.75
2019-04-22T18:46:40.660Z,101285.63
2019-04-22T18:49:16.548Z,101287.63
2019-04-22T18:52:10.427Z,101291.27
2019-04-22T18:54:56.895Z,101297.14
2019-04-22T18:57:41.175Z,101293.66
2019-04-22T19:00:07.076Z,101289.50
2019-04-22T19:02:49.491Z,101298.95
2019-04-22T19:05:28.169Z,101302.95
2019-04-22T19:08:18.697Z,101309.66
2019-04-22T19:10:57.712Z,101299.61
2019-04-22T19:16:12.708Z,101307.30
2019-04-22T19:18:39.315Z,101305.59
2019-04-22T19:21:12.454Z,101307.49
2019-04-22T19:24:01.533Z,101302.69
2019-04-22T19:26:55.922Z,101300.59
2019-04-22T19:29:21.988Z,101304.13
2019-04-22T19:31:56.852Z,101301.95
2019-04-22T19:34:32.267Z,101294.53
2019-04-22T19:37:10.920Z,101298.15
2019-04-22T19:39:52.597Z,101301.28
2019-04-22T19:42:25.556Z,101299.13
2019-04-22T19:44:55.273Z,101306.31
2019-04-22T19:47:38.925Z,101314.30
2019-04-22T19:52:44.686Z,101311.86
2019-04-22T19:55:23.850Z,101311.08
2019-04-22T19:57:57.340Z,101317.77
2019-04-22T20:00:41.786Z,101311.69
2019-04-22T20:03:48.321Z,101319.70
2019-04-22T20:06:28.668Z,101318.02
2019-04-22T20:09:06.670Z,101322.16
2019-04-22T20:11:41.327Z,101308.30
2019-04-22T20:14:12.623Z,101319.23
2019-04-22T20:16:46.599Z,101322.41
2019-04-22T20:19:33.795Z,101316.88
2019-04-22T20:22:03.405Z,101328.24
2019-04-22T20:24:22.580Z,101329.64
2019-04-22T20:27:16.359Z,101322.19
2019-04-22T20:29:47.834Z,101320.89
2019-04-22T20:32:22.119Z,101330.23
2019-04-22T20:34:57.658Z,101319.72
2019-04-22T20:37:35.540Z,101322.02
2019-04-22T20:40:09.137Z,101326.93
2019-04-22T20:42:48.976Z,101323.88
2019-04-22T20:45:15.211Z,101325.30
2019-04-22T20:47:43.987Z,101321.82
2019-04-22T20:50:32.893Z,101320.59
2019-04-22T20:53:08.586Z,101323.70
2019-04-22T20:55:36.877Z,101320.27
2019-04-22T20:58:12.189Z,101315.08
2019-04-22T21:00:40.269Z,101322.17
2019-04-22T21:03:15.924Z,101320.50
2019-04-22T21:05:49.221Z,101316.57
2019-04-22T21:08:38.595Z,101318.02
2019-04-22T21:11:04.474Z,101322.94
2019-04-22T21:13:46.615Z,101318.13
2019-04-22T21:16:22.252Z,101319.07
2019-04-22T21:18:47.271Z,101323.95
2019-04-22T21:21:31.682Z,101325.72
2019-04-22T21:23:58.376Z,101323.63
2019-04-22T21:26:42.669Z,101326.34
2019-04-22T21:29:13.068Z,101326.84
2019-04-22T21:31:59.868Z,101322.89
2019-04-22T21:34:26.374Z,101334.76
2019-04-22T21:37:12.098Z,101338.80
2019-04-22T21:39:36.379Z,101337.99
2019-04-22T21:42:14.299Z,101339.34
2019-04-22T21:44:44.105Z,101334.58
2019-04-22T21:47:28.745Z,101331.09
2019-04-22T21:50:19.668Z,101332.01
2019-04-22T21:52:33.519Z,101332.04
2019-04-22T21:55:14.398Z,101330.77
2019-04-22T21:57:57.230Z,101335.20
2019-04-22T22:03:17.859Z,101336.61
2019-04-22T22:05:37.628Z,101341.55
2019-04-22T22:08:23.116Z,101338.13
2019-04-22T22:10:52.642Z,101339.51
2019-04-22T22:13:32.013Z,101332.07
2019-04-22T22:16:04.563Z,101328.64
2019-04-22T22:18:30.033Z,101329.08
2019-04-22T22:21:33.108Z,101326.51
2019-04-22T22:23:52.033Z,101324.78
2019-04-22T22:26:18.605Z,101324.47
2019-04-22T22:29:05.407Z,101324.92
2019-04-22T22:31:41.309Z,101327.58
2019-04-22T22:34:09.783Z,101325.86
2019-04-22T22:36:36.661Z,101321.11
2019-04-22T22:39:08.708Z,101313.72
2019-04-22T22:41:34.151Z,101315.03
2019-04-22T22:44:17.629Z,101317.73
2019-04-22T22:46:58.897Z,101312.03
2019-04-22T22:49:40.585Z,101306.82
2019-04-22T22:52:40.854Z,101310.88
2019-04-22T22:54:46.231Z,101308.75
2019-04-22T22:57:27.746Z,101260.80
2019-04-22T22:59:58.642Z,101302.23
2019-04-22T23:02:59.568Z,101300.92
2019-04-22T23:05:16.893Z,101308.00
2019-04-22T23:07:55.440Z,101311.09
2019-04-22T23:10:25.335Z,101309.83
2019-04-22T23:13:02.712Z,101309.84
2019-04-22T23:15:27.563Z,101308.57
2019-04-22T23:17:54.132Z,101306.40
2019-04-22T23:20:36.085Z,101299.87
2019-04-22T23:23:29.749Z,101300.77
2019-04-22T23:26:07.178Z,101302.54
2019-04-22T23:29:02.428Z,101292.51
2019-04-22T23:31:39.976Z,101300.87
2019-04-22T23:34:24.962Z,101296.47
2019-04-22T23:37:21.905Z,101295.61
2019-04-22T23:40:09.726Z,101296.92
2019-04-22T23:42:33.706Z,101292.58
2019-04-22T23:45:13.919Z,101288.25
2019-04-22T23:47:39.057Z,101287.81
2019-04-22T23:50:29.616Z,101278.68
2019-04-22T23:53:00.629Z,101275.14
2019-04-22T23:55:36.977Z,101283.99
2019-04-22T23:58:07.937Z,101271.28
